This is the latest recevied weather packets stored in our database for station/object BMCB-30. If no packets are shown the sender has not sent any weather packets the latest 10 day(s).
| Time | Temp. | Humidity | Pressure | Rain* | Wind** | Luminosity | Snow |
|---|---|---|---|---|---|---|---|
| 1777416047 | 12.22° C | 57% | 1021.8 hPa | 0 mm | - | 0 W/m² | - |
| 1777411247 | 13.33° C | 53% | 1021.4 hPa | 0 mm | - | 0 W/m² | - |
| 1777408848 | 13.89° C | 51% | 1021 hPa | 0 mm | - | 0 W/m² | - |
| 1777407051 | 14.44° C | 50% | 1020.9 hPa | 0 mm | - | 0 W/m² | - |
| 1777405846 | 15° C | 49% | 1020.5 hPa | 0 mm | - | 0 W/m² | - |
| 1777404648 | 15.56° C | 49% | 1020.2 hPa | 0 mm | - | 0 W/m² | - |
| 1777401050 | 17.22° C | 45% | 1019.2 hPa | 0 mm | - | 16 W/m² | - |
| 1777400445 | 17.78° C | 44% | 1019.1 hPa | 0 mm | - | 22 W/m² | - |
| 1777396848 | 20° C | 38% | 1018.3 hPa | 0 mm | - | 88 W/m² | - |
| 1777392646 | 21.11° C | 38% | 1017.7 hPa | 0 mm | - | 192 W/m² | - |
| 1777392048 | 21.67° C | 37% | 1017.6 hPa | 0 mm | - | 310 W/m² | - |
| 1777390248 | 21.67° C | 38% | 1017.6 hPa | 0 mm | - | 450 W/m² | - |
| 1777389044 | 21.67° C | 38% | 1017.8 hPa | 0 mm | - | 498 W/m² | - |
| 1777388447 | 21.67° C | 38% | 1017.8 hPa | 0 mm | - | 522 W/m² | - |
| 1777384850 | 20.56° C | 40% | 1018.3 hPa | 0 mm | - | 654 W/m² | - |
| 1777384243 | 21.11° C | 41% | 1018.4 hPa | 0 mm | - | 668 W/m² | - |
| 1777375244 | 18.89° C | 43% | 1019.3 hPa | 0 mm | - | 692 W/m² | - |
| 1777372248 | 18.33° C | 45% | 1019.8 hPa | 0 mm | - | 754 W/m² | - |
| 1777371045 | 17.22° C | 49% | 1020.2 hPa | 0 mm | - | 608 W/m² | - |
| 1777366245 | 13.89° C | 58% | 1020.8 hPa | 0 mm | - | 404 W/m² | - |
| 1777362045 | 10° C | 68% | 1021 hPa | 0 mm | - | 136 W/m² | - |
| 1777359047 | 8.33° C | 73% | 1021 hPa | 0 mm | - | 102 W/m² | - |
| 1777353045 | 6.67° C | 79% | 1020.7 hPa | 0 mm | - | 20 W/m² | - |
| 1777350644 | 7.22° C | 75% | 1020.5 hPa | 0 mm | - | 2 W/m² | - |
| 1777347643 | 7.22° C | 81% | 1020.8 hPa | 0 mm | - | 0 W/m² | - |
* Rain latest hour (hover to see other rain measurements)
** Current wind speed in m/s (hover to see current wind gust speed)